createdAt,value
2022-09-03T00:00:05.025Z,101083.00
2022-09-03T00:02:43.881Z,101059.38
2022-09-03T00:05:21.605Z,101098.94
2022-09-03T00:07:58.706Z,101106.03
2022-09-03T00:10:38.151Z,101100.78
2022-09-03T00:13:08.609Z,101102.50
2022-09-03T00:15:40.757Z,101098.13
2022-09-03T00:18:16.666Z,101089.34
2022-09-03T00:20:52.566Z,101073.50
2022-09-03T00:23:25.473Z,101057.78
2022-09-03T00:26:00.977Z,101089.41
2022-09-03T00:28:36.779Z,101088.50
2022-09-03T00:31:18.987Z,101092.97
2022-09-03T00:33:51.932Z,101078.06
2022-09-03T00:36:26.787Z,101089.41
2022-09-03T00:38:54.995Z,101086.75
2022-09-03T00:41:33.710Z,101087.69
2022-09-03T00:44:45.023Z,101071.84
2022-09-03T00:47:20.435Z,101080.75
2022-09-03T00:50:07.194Z,101076.28
2022-09-03T00:53:01.269Z,101085.13
2022-09-03T00:55:43.659Z,101088.69
2022-09-03T00:58:51.979Z,101087.78
2022-09-03T01:01:26.442Z,101089.53
2022-09-03T01:04:08.201Z,101074.72
2022-09-03T01:06:54.070Z,101071.25
2022-09-03T01:09:44.175Z,101078.34
2022-09-03T01:12:25.369Z,101091.50
2022-09-03T01:15:07.925Z,101083.59
2022-09-03T01:17:52.555Z,101090.59
2022-09-03T01:20:44.206Z,101063.44
2022-09-03T01:23:54.682Z,101056.44
2022-09-03T01:27:03.539Z,101072.25
2022-09-03T01:29:41.123Z,101081.97
2022-09-03T01:32:17.987Z,101090.75
2022-09-03T01:34:58.318Z,101097.88
2022-09-03T01:37:43.004Z,101089.09
2022-09-03T01:40:23.917Z,101084.69
2022-09-03T01:43:15.910Z,101087.34
2022-09-03T01:45:59.773Z,101078.59
2022-09-03T01:48:42.189Z,101073.34
2022-09-03T01:51:21.180Z,101077.75
2022-09-03T01:54:21.745Z,101078.63
2022-09-03T01:57:37.072Z,101093.63
2022-09-03T02:00:13.246Z,101087.47
2022-09-03T02:02:47.893Z,101084.88
2022-09-03T02:05:20.540Z,101086.66
2022-09-03T02:07:52.989Z,101094.59
2022-09-03T02:10:25.078Z,101064.72
2022-09-03T02:13:00.568Z,101060.38
2022-09-03T02:15:31.121Z,101087.56
2022-09-03T02:18:04.958Z,101063.88
2022-09-03T02:20:34.147Z,101057.75
2022-09-03T02:23:03.599Z,101066.50
2022-09-03T02:25:38.162Z,101052.50
2022-09-03T02:28:15.739Z,101055.16
2022-09-03T02:30:46.314Z,101062.16
2022-09-03T02:33:17.149Z,101078.84
2022-09-03T02:35:46.444Z,101068.34
2022-09-03T02:38:18.596Z,101064.84
2022-09-03T02:40:47.156Z,101059.59
2022-09-03T02:43:26.118Z,101079.81
2022-09-03T02:46:00.839Z,101072.78
2022-09-03T02:48:30.554Z,101058.75
2022-09-03T02:50:59.176Z,101084.22
2022-09-03T02:53:29.030Z,101079.84
2022-09-03T02:56:00.998Z,101043.84
2022-09-03T02:58:31.633Z,101071.91
2022-09-03T03:01:02.109Z,101048.22
2022-09-03T03:03:32.413Z,101083.38
2022-09-03T03:06:04.330Z,101062.31
2022-09-03T03:08:34.756Z,101082.53
2022-09-03T03:11:03.496Z,101054.41
2022-09-03T03:13:32.721Z,101072.00
2022-09-03T03:16:02.941Z,101077.25
2022-09-03T03:18:34.020Z,101047.38
2022-09-03T03:21:06.793Z,101055.34
2022-09-03T03:23:36.408Z,101077.25
2022-09-03T03:26:06.395Z,101058.81
2022-09-03T03:28:35.632Z,101089.59
2022-09-03T03:31:08.157Z,101059.72
2022-09-03T03:33:38.062Z,101077.31
2022-09-03T03:36:08.159Z,101050.94
2022-09-03T03:38:37.086Z,101084.34
2022-09-03T03:41:10.201Z,101079.06
2022-09-03T03:43:39.058Z,101076.41
2022-09-03T03:46:07.736Z,101079.06
2022-09-03T03:48:38.262Z,101071.13
2022-09-03T03:51:09.485Z,101078.16
2022-09-03T03:53:39.780Z,101080.81
2022-09-03T03:56:10.701Z,101057.97
2022-09-03T03:58:44.037Z,101066.75
2022-09-03T04:01:15.147Z,101074.66
2022-09-03T04:03:45.988Z,101060.63
2022-09-03T04:06:17.598Z,101085.19
2022-09-03T04:08:48.429Z,101055.34
2022-09-03T04:11:20.823Z,101079.06
2022-09-03T04:13:50.756Z,101048.34
2022-09-03T04:16:21.240Z,101047.44
2022-09-03T04:18:51.646Z,101072.91
2022-09-03T04:21:22.992Z,101016.72
2022-09-03T04:23:52.800Z,101058.88
2022-09-03T04:26:23.934Z,101048.31
2022-09-03T04:28:52.307Z,101051.84
2022-09-03T04:31:22.548Z,101068.53
2022-09-03T04:33:52.250Z,101074.69
2022-09-03T04:36:22.649Z,101078.19
2022-09-03T04:38:52.787Z,101057.09
2022-09-03T04:41:23.056Z,101074.69
2022-09-03T04:43:53.232Z,101063.28
2022-09-03T04:46:24.110Z,101074.69
2022-09-03T04:48:56.261Z,101078.19
2022-09-03T04:51:28.143Z,101076.44
2022-09-03T04:53:58.998Z,101078.19
2022-09-03T04:56:29.612Z,101052.72
2022-09-03T04:58:59.920Z,101065.91
2022-09-03T05:01:32.121Z,101056.22
2022-09-03T05:04:02.668Z,101072.94
2022-09-03T05:06:32.841Z,101072.06
2022-09-03T05:09:02.373Z,101085.25
2022-09-03T05:11:31.671Z,101085.25
2022-09-03T05:14:01.453Z,101048.34
2022-09-03T05:16:31.338Z,101077.31
2022-09-03T05:19:03.717Z,101081.72
2022-09-03T05:21:32.033Z,101081.72
2022-09-03T05:24:01.835Z,101067.66
2022-09-03T05:26:32.446Z,101077.31
2022-09-03T05:29:03.181Z,101081.69
2022-09-03T05:31:32.913Z,101059.72
2022-09-03T05:34:05.591Z,101081.72
2022-09-03T05:36:36.024Z,101081.69
2022-09-03T05:39:06.221Z,101082.56
2022-09-03T05:41:34.742Z,101082.59
2022-09-03T05:44:04.195Z,101076.41
2022-09-03T05:46:37.426Z,101043.00
2022-09-03T05:49:08.857Z,101081.66
2022-09-03T05:51:40.082Z,101080.78
2022-09-03T05:54:09.373Z,101090.41
2022-09-03T05:56:41.282Z,101059.59
2022-09-03T05:59:11.989Z,101062.16
2022-09-03T06:01:45.788Z,101093.69
2022-09-03T06:04:21.705Z,101065.56
2022-09-03T06:06:50.417Z,101080.38
2022-09-03T06:09:21.171Z,101068.06
2022-09-03T06:11:52.674Z,101090.91
2022-09-03T06:14:22.056Z,101070.63
2022-09-03T06:16:52.774Z,101067.91
2022-09-03T06:19:22.633Z,101073.06
2022-09-03T06:21:50.846Z,101067.88
2022-09-03T06:24:23.225Z,101077.50
2022-09-03T06:26:54.963Z,101065.09
2022-09-03T06:29:23.381Z,101085.34
2022-09-03T06:31:52.550Z,101092.28
2022-09-03T06:34:23.273Z,101070.38
2022-09-03T06:36:54.537Z,101094.91
2022-09-03T06:39:23.347Z,101081.66
2022-09-03T06:41:52.195Z,101098.28
2022-09-03T06:44:28.013Z,101098.19
2022-09-03T06:46:56.319Z,101101.63
2022-09-03T06:49:26.251Z,101093.59
2022-09-03T06:51:54.618Z,101097.91
2022-09-03T06:54:25.182Z,101096.97
2022-09-03T06:56:53.499Z,101086.38
2022-09-03T06:59:21.732Z,101091.50
2022-09-03T07:01:50.788Z,101048.59
2022-09-03T07:04:20.313Z,101103.72
2022-09-03T07:06:50.454Z,101097.56
2022-09-03T07:09:19.383Z,101101.00
2022-09-03T07:11:49.183Z,101084.34
2022-09-03T07:14:19.519Z,101103.69
2022-09-03T07:16:49.243Z,101087.78
2022-09-03T07:19:17.925Z,101104.38
2022-09-03T07:21:50.014Z,101081.53
2022-09-03T07:24:22.267Z,101099.75
2022-09-03T07:26:50.969Z,101099.72
2022-09-03T07:29:21.644Z,101103.88
2022-09-03T07:31:52.944Z,101096.72
2022-09-03T07:34:25.652Z,101098.22
2022-09-03T07:36:55.060Z,101098.59
2022-09-03T07:39:24.892Z,101094.91
2022-09-03T07:41:53.788Z,101093.69
2022-09-03T07:44:23.107Z,101084.69
2022-09-03T07:46:52.209Z,101092.50
2022-09-03T07:49:22.551Z,101098.34
2022-09-03T07:51:54.643Z,101070.88
2022-09-03T07:54:27.310Z,101096.13
2022-09-03T07:56:56.375Z,101101.09
2022-09-03T07:59:26.081Z,101098.34
2022-09-03T08:01:54.627Z,101104.16
2022-09-03T08:04:23.044Z,101104.75
2022-09-03T08:06:55.461Z,101108.84
2022-09-03T08:09:25.292Z,101107.63
2022-09-03T08:11:53.553Z,101098.47
2022-09-03T08:14:22.048Z,101101.81
2022-09-03T08:16:50.323Z,101116.72
2022-09-03T08:19:19.947Z,101120.84
2022-09-03T08:21:48.340Z,101102.53
2022-09-03T08:24:20.937Z,101101.25
2022-09-03T08:26:52.581Z,101109.66
2022-09-03T08:29:23.496Z,101109.28
2022-09-03T08:31:51.943Z,101103.19
2022-09-03T08:34:21.533Z,101112.16
2022-09-03T08:36:50.343Z,101104.00
2022-09-03T08:39:18.897Z,101072.03
2022-09-03T08:42:28.033Z,101104.34
2022-09-03T08:44:59.642Z,101105.97
2022-09-03T08:47:35.219Z,101106.00
2022-09-03T08:50:12.642Z,101105.72
2022-09-03T08:52:49.234Z,101106.09
2022-09-03T08:55:24.975Z,101109.63
2022-09-03T08:58:03.081Z,101090.16
2022-09-03T09:00:48.403Z,101107.19
2022-09-03T09:03:47.811Z,101090.31
2022-09-03T09:06:27.482Z,101089.47
2022-09-03T09:09:13.514Z,101100.75
2022-09-03T09:12:04.842Z,101093.38
2022-09-03T09:14:41.658Z,101107.94
2022-09-03T09:17:32.786Z,101120.75
2022-09-03T09:20:12.555Z,101122.72
2022-09-03T09:22:47.363Z,101112.56
2022-09-03T09:25:21.338Z,101099.09
2022-09-03T09:27:56.089Z,101110.66
2022-09-03T09:30:26.206Z,101108.47
2022-09-03T09:32:56.253Z,101113.94
2022-09-03T09:35:25.808Z,101107.06
2022-09-03T09:37:57.545Z,101087.78
2022-09-03T09:40:33.841Z,101090.97
2022-09-03T09:43:08.003Z,101094.78
2022-09-03T09:45:40.767Z,101081.09
2022-09-03T09:48:19.976Z,101106.75
2022-09-03T09:50:48.486Z,101096.06
2022-09-03T09:53:21.888Z,101072.69
2022-09-03T09:55:55.543Z,101089.53
2022-09-03T09:58:28.349Z,101103.66
2022-09-03T10:01:05.383Z,101083.03
2022-09-03T10:03:36.094Z,101074.66
2022-09-03T10:06:26.029Z,101094.22
2022-09-03T10:09:07.272Z,101093.44
2022-09-03T10:11:40.284Z,101080.72
2022-09-03T10:14:18.266Z,101076.94
2022-09-03T10:16:55.343Z,101074.47
2022-09-03T10:19:34.606Z,101076.84
2022-09-03T10:22:09.665Z,101080.06
2022-09-03T10:24:54.029Z,101075.41
2022-09-03T10:27:22.953Z,101061.47
2022-09-03T10:29:51.487Z,101077.56
2022-09-03T10:32:39.300Z,101066.97
2022-09-03T10:35:21.393Z,101074.78
2022-09-03T10:37:58.264Z,101073.25
2022-09-03T10:40:36.189Z,101078.84
2022-09-03T10:43:58.202Z,101071.44
2022-09-03T10:46:29.787Z,101066.41
2022-09-03T10:49:34.023Z,101059.78
2022-09-03T10:52:11.281Z,101071.13
2022-09-03T10:55:16.240Z,101057.72
2022-09-03T10:57:56.161Z,101067.75
2022-09-03T11:00:26.035Z,101077.53
2022-09-03T11:03:28.651Z,101075.56
2022-09-03T11:06:07.825Z,101075.91
2022-09-03T11:08:43.134Z,101074.41
2022-09-03T11:11:20.110Z,101084.03
2022-09-03T11:13:54.988Z,101077.75
2022-09-03T11:16:27.944Z,101074.41
2022-09-03T11:19:04.657Z,101065.69
2022-09-03T11:21:38.204Z,101059.34
2022-09-03T11:24:15.599Z,101067.44
2022-09-03T11:26:48.386Z,101064.97
2022-09-03T11:29:27.957Z,101055.56
2022-09-03T11:32:02.554Z,101066.41
2022-09-03T11:34:33.989Z,101045.47
2022-09-03T11:37:21.090Z,101056.19
2022-09-03T11:40:04.688Z,101065.38
2022-09-03T11:42:38.099Z,101040.63
2022-09-03T11:45:37.480Z,101041.19
2022-09-03T11:48:29.894Z,101056.38
2022-09-03T11:50:58.145Z,101056.25
2022-09-03T11:53:35.618Z,101054.59
2022-09-03T11:56:19.766Z,101058.94
2022-09-03T11:58:48.264Z,101044.19
2022-09-03T12:01:19.226Z,101054.72
2022-09-03T12:03:53.111Z,101057.41
2022-09-03T12:06:48.770Z,101040.63
2022-09-03T12:09:40.483Z,101057.06
2022-09-03T12:12:33.379Z,101039.22
2022-09-03T12:15:15.711Z,101060.41
2022-09-03T12:18:14.005Z,101048.06
2022-09-03T12:20:43.030Z,101024.09
2022-09-03T12:23:14.604Z,101051.09
2022-09-03T12:25:47.627Z,101043.50
2022-09-03T12:28:23.551Z,101038.75
2022-09-03T12:30:53.739Z,101055.03
2022-09-03T12:33:24.483Z,101041.03
2022-09-03T12:35:59.993Z,101060.06
2022-09-03T12:38:40.538Z,101043.69
2022-09-03T12:41:31.441Z,101018.00
2022-09-03T12:44:04.862Z,101020.34
2022-09-03T12:46:34.984Z,101009.53
2022-09-03T12:52:06.129Z,101034.88
2022-09-03T12:54:38.661Z,101017.69
2022-09-03T12:57:10.039Z,101025.84
2022-09-03T12:59:40.718Z,101028.22
2022-09-03T13:02:20.319Z,101034.31
2022-09-03T13:04:49.682Z,101030.59
2022-09-03T13:07:28.385Z,101028.81
2022-09-03T13:10:06.923Z,101007.72
2022-09-03T13:12:52.976Z,101025.66
2022-09-03T13:15:25.337Z,101012.44
2022-09-03T13:18:25.503Z,101021.81
2022-09-03T13:21:12.232Z,101025.16
2022-09-03T13:23:59.798Z,101028.38
2022-09-03T13:26:41.452Z,101025.91
2022-09-03T13:29:35.939Z,101031.84
2022-09-03T13:32:21.552Z,101032.41
2022-09-03T13:34:55.857Z,101027.72
2022-09-03T13:37:33.122Z,101026.16
2022-09-03T13:40:15.962Z,101026.16
2022-09-03T13:42:53.357Z,101013.41
2022-09-03T13:45:32.880Z,101014.00
2022-09-03T13:48:27.930Z,101025.66
2022-09-03T13:51:08.537Z,101022.03
2022-09-03T13:53:59.307Z,101020.72
2022-09-03T13:56:45.668Z,101028.34
2022-09-03T13:59:23.566Z,101035.16
2022-09-03T14:02:21.636Z,101018.22
2022-09-03T14:05:05.061Z,101029.63
2022-09-03T14:07:52.453Z,101025.63
2022-09-03T14:10:39.423Z,101030.91
2022-09-03T14:13:22.612Z,101023.19
2022-09-03T14:15:59.075Z,100972.91
2022-09-03T14:18:48.181Z,101023.19
2022-09-03T14:21:21.977Z,101013.91
2022-09-03T14:23:56.132Z,101027.25
2022-09-03T14:26:38.960Z,101015.81
2022-09-03T14:29:17.201Z,101010.50
2022-09-03T14:32:24.423Z,101037.06
2022-09-03T14:35:18.208Z,101020.09
2022-09-03T14:38:17.164Z,101024.25
2022-09-03T14:40:47.980Z,101021.91
2022-09-03T14:43:38.300Z,101030.16
2022-09-03T14:46:26.265Z,101024.19
2022-09-03T14:49:20.979Z,101017.38
2022-09-03T14:52:12.113Z,101029.13
2022-09-03T14:55:24.628Z,101028.53
2022-09-03T14:58:18.064Z,101009.16
2022-09-03T15:00:58.776Z,101025.91
2022-09-03T15:03:57.356Z,101028.63
2022-09-03T15:06:42.202Z,101015.41
2022-09-03T15:09:30.157Z,101000.31
2022-09-03T15:12:04.279Z,101003.75
2022-09-03T15:14:47.874Z,101004.25
2022-09-03T15:17:45.134Z,101015.38
2022-09-03T15:20:27.566Z,101019.81
2022-09-03T15:23:50.104Z,101026.91
2022-09-03T15:26:55.491Z,101023.56
2022-09-03T15:29:51.452Z,101026.94
2022-09-03T15:32:40.592Z,101028.97
2022-09-03T15:35:12.115Z,101028.22
2022-09-03T15:37:47.948Z,101031.81
2022-09-03T15:40:29.165Z,101020.94
2022-09-03T15:43:08.374Z,101017.84
2022-09-03T15:45:41.644Z,101033.03
2022-09-03T15:48:23.514Z,101032.56
2022-09-03T15:50:58.716Z,101032.09
2022-09-03T15:53:36.177Z,101024.19
2022-09-03T15:56:16.798Z,101017.88
2022-09-03T15:58:53.875Z,100983.38
2022-09-03T16:01:33.619Z,101018.59
2022-09-03T16:04:21.339Z,101022.91
2022-09-03T16:07:00.174Z,101009.41
2022-09-03T16:10:20.290Z,101035.94
2022-09-03T16:12:51.126Z,101033.66
2022-09-03T16:15:24.765Z,101006.75
2022-09-03T16:18:02.602Z,101038.84
2022-09-03T16:20:40.443Z,101029.22
2022-09-03T16:23:22.324Z,101018.22
2022-09-03T16:25:57.359Z,101040.03
2022-09-03T16:28:31.045Z,101032.47
2022-09-03T16:31:17.102Z,101027.84
2022-09-03T16:33:57.561Z,101037.31
2022-09-03T16:36:39.128Z,101017.19
2022-09-03T16:39:22.892Z,101037.56
2022-09-03T16:42:05.207Z,101036.81
2022-09-03T16:44:50.733Z,101037.53
2022-09-03T16:47:34.116Z,101022.63
2022-09-03T16:50:19.354Z,101047.16
2022-09-03T16:53:03.207Z,101044.16
2022-09-03T16:55:51.859Z,101050.44
2022-09-03T16:58:27.869Z,101045.84
2022-09-03T17:01:15.892Z,101050.16
2022-09-03T17:04:14.262Z,101045.69
2022-09-03T17:06:57.501Z,101062.09
2022-09-03T17:09:46.770Z,101055.91
2022-09-03T17:12:27.439Z,101058.91
2022-09-03T17:15:17.614Z,101064.41
2022-09-03T17:18:17.768Z,101062.19
2022-09-03T17:21:06.573Z,101069.41
2022-09-03T17:24:05.562Z,101071.66
2022-09-03T17:26:45.697Z,101064.69
2022-09-03T17:29:41.677Z,101064.25
2022-09-03T17:32:29.122Z,101078.25
2022-09-03T17:35:11.529Z,101078.94
2022-09-03T17:37:59.039Z,101084.66
2022-09-03T17:40:41.784Z,101088.88
2022-09-03T17:43:27.993Z,101081.81
2022-09-03T17:46:13.420Z,101093.75
2022-09-03T17:48:52.427Z,101084.81
2022-09-03T17:51:42.856Z,101100.53
2022-09-03T17:54:22.965Z,101079.88
2022-09-03T17:57:01.686Z,101090.91
2022-09-03T17:59:44.249Z,101118.22
2022-09-03T18:02:31.701Z,101118.72
2022-09-03T18:05:08.035Z,101107.09
2022-09-03T18:07:48.286Z,101097.53
2022-09-03T18:10:31.837Z,101103.13
2022-09-03T18:13:12.515Z,101125.44
2022-09-03T18:15:54.313Z,101125.38
2022-09-03T18:18:30.203Z,101110.19
2022-09-03T18:21:25.555Z,101111.34
2022-09-03T18:24:22.779Z,101136.81
2022-09-03T18:27:17.589Z,101129.28
2022-09-03T18:30:12.551Z,101140.22
2022-09-03T18:32:58.380Z,101150.78
2022-09-03T18:35:48.161Z,101158.22
2022-09-03T18:38:36.762Z,101160.81
2022-09-03T18:41:34.872Z,101170.81
2022-09-03T18:44:34.174Z,101165.06
2022-09-03T18:50:44.764Z,101167.94
2022-09-03T18:53:36.680Z,101186.03
2022-09-03T18:56:34.070Z,101173.66
2022-09-03T18:59:39.676Z,101183.59
2022-09-03T19:02:41.782Z,101189.94
2022-09-03T19:05:37.482Z,101181.84
2022-09-03T19:08:36.817Z,101202.22
2022-09-03T19:11:27.735Z,101183.44
2022-09-03T19:14:18.041Z,101204.41
2022-09-03T19:17:23.568Z,101188.72
2022-09-03T19:20:21.031Z,101216.19
2022-09-03T19:23:06.928Z,101205.69
2022-09-03T19:25:54.678Z,101215.63
2022-09-03T19:28:42.805Z,101197.59
2022-09-03T19:31:52.880Z,101213.22
2022-09-03T19:35:26.105Z,101218.72
2022-09-03T19:38:30.283Z,101199.00
2022-09-03T19:41:27.622Z,101213.19
2022-09-03T19:44:33.669Z,101229.47
2022-09-03T19:47:22.049Z,101233.34
2022-09-03T19:50:22.234Z,101241.34
2022-09-03T19:53:13.823Z,101246.00
2022-09-03T19:56:07.784Z,101247.50
2022-09-03T19:58:58.921Z,101243.75
2022-09-03T20:01:52.573Z,101246.47
2022-09-03T20:04:45.756Z,101251.56
2022-09-03T20:07:33.205Z,101247.06
2022-09-03T20:10:23.600Z,101254.13
2022-09-03T20:13:03.534Z,101256.19
2022-09-03T20:15:44.764Z,101253.59
2022-09-03T20:18:26.167Z,101237.13
2022-09-03T20:21:06.060Z,101255.66
2022-09-03T20:23:46.600Z,101226.47
2022-09-03T20:26:29.138Z,101238.19
2022-09-03T20:29:28.754Z,101246.78
2022-09-03T20:32:09.365Z,101261.41
2022-09-03T20:34:49.000Z,101273.16
2022-09-03T20:37:29.360Z,101266.09
2022-09-03T20:40:20.677Z,101253.63
2022-09-03T20:43:28.381Z,101270.16
2022-09-03T20:46:16.419Z,101262.66
2022-09-03T20:48:59.646Z,101278.38
2022-09-03T20:51:36.144Z,101283.00
2022-09-03T20:54:15.066Z,101255.59
2022-09-03T20:57:26.997Z,101261.88
2022-09-03T21:00:08.160Z,101283.00
2022-09-03T21:03:01.430Z,101283.06
2022-09-03T21:05:35.611Z,101266.47
2022-09-03T21:08:20.141Z,101262.09
2022-09-03T21:10:54.898Z,101289.06
2022-09-03T21:13:38.459Z,101279.81
2022-09-03T21:16:24.991Z,101286.16
2022-09-03T21:19:07.026Z,101275.84
2022-09-03T21:21:48.081Z,101207.34
2022-09-03T21:24:20.929Z,101259.16
2022-09-03T21:26:54.021Z,101280.19
2022-09-03T21:29:28.109Z,101273.19
2022-09-03T21:32:04.956Z,101291.53
2022-09-03T21:34:41.662Z,101296.63
2022-09-03T21:37:13.833Z,101278.88
2022-09-03T21:39:47.873Z,101291.94
2022-09-03T21:42:25.314Z,101298.97
2022-09-03T21:45:02.193Z,101270.88
2022-09-03T21:47:35.108Z,101284.09
2022-09-03T21:50:18.019Z,101273.59
2022-09-03T21:52:53.957Z,101275.38
2022-09-03T21:55:29.403Z,101299.25
2022-09-03T21:58:13.849Z,101263.25
2022-09-03T22:00:43.923Z,101299.63
2022-09-03T22:03:13.388Z,101292.19
2022-09-03T22:05:51.791Z,101306.16
2022-09-03T22:08:29.163Z,101305.00
2022-09-03T22:11:08.990Z,101287.38
2022-09-03T22:13:48.491Z,101305.31
2022-09-03T22:16:28.185Z,101279.16
2022-09-03T22:18:56.671Z,101304.63
2022-09-03T22:21:32.274Z,101301.50
2022-09-03T22:24:22.207Z,101301.09
2022-09-03T22:26:58.190Z,101304.00
2022-09-03T22:29:40.110Z,101281.25
2022-09-03T22:32:25.341Z,101323.50
2022-09-03T22:35:11.878Z,101335.59
2022-09-03T22:38:09.267Z,101335.88
2022-09-03T22:40:46.217Z,101339.56
2022-09-03T22:43:41.207Z,101330.72
2022-09-03T22:46:14.001Z,101331.91
2022-09-03T22:49:16.872Z,101321.38
2022-09-03T22:51:57.982Z,101324.25
2022-09-03T22:54:44.861Z,101319.16
2022-09-03T22:57:15.704Z,101324.25
2022-09-03T22:59:52.556Z,101325.44
2022-09-03T23:02:24.835Z,101303.75
2022-09-03T23:05:06.155Z,101318.72
2022-09-03T23:07:49.489Z,101350.47
2022-09-03T23:10:25.869Z,101341.88
2022-09-03T23:13:07.190Z,101340.22
2022-09-03T23:15:41.711Z,101352.75
2022-09-03T23:18:17.680Z,101358.91
2022-09-03T23:20:57.239Z,101359.78
2022-09-03T23:23:32.012Z,101358.13
2022-09-03T23:26:13.353Z,101356.44
2022-09-03T23:28:48.587Z,101339.84
2022-09-03T23:31:22.614Z,101348.59
2022-09-03T23:33:53.891Z,101367.34
2022-09-03T23:37:10.260Z,101285.69
2022-09-03T23:40:13.737Z,101353.38
2022-09-03T23:43:25.895Z,101341.13
2022-09-03T23:46:05.374Z,101360.47
2022-09-03T23:48:45.022Z,101365.19
2022-09-03T23:51:23.540Z,101369.59
2022-09-03T23:54:10.256Z,101372.34
2022-09-03T23:56:57.826Z,101362.72
2022-09-03T23:59:43.264Z,101375.66
